This is the latest recevied weather packets stored in our database for station/object KC1OEK-13. If no packets are shown the sender has not sent any weather packets the latest 10 day(s).
| Time | Temp. | Humidity | Pressure | Rain* | Wind** | Luminosity | Snow |
|---|---|---|---|---|---|---|---|
| 1777647042 | 12.22° C | 49% | 1013.4 hPa | 0 mm | - | 656 W/m² | - |
| 1777646738 | 11.67° C | 52% | 1013.4 hPa | 0 mm | - | 656 W/m² | - |
| 1777646433 | 11.67° C | 53% | 1013.3 hPa | 0 mm | - | 649 W/m² | - |
| 1777646129 | 12.22° C | 51% | 1013.3 hPa | 0 mm | - | 639 W/m² | - |
| 1777645827 | 11.67° C | 53% | 1013.4 hPa | 0 mm | - | 632 W/m² | - |
| 1777645524 | 12.22° C | 51% | 1013.5 hPa | 0 mm | - | 546 W/m² | - |
| 1777645220 | 12.22° C | 52% | 1013.3 hPa | 0 mm | - | 608 W/m² | - |
| 1777644916 | 11.11° C | 56% | 1013.4 hPa | 0 mm | - | 600 W/m² | - |
| 1777644614 | 11.67° C | 54% | 1013.6 hPa | 0 mm | - | 592 W/m² | - |
| 1777644309 | 11.11° C | 55% | 1013.5 hPa | 0 mm | - | 569 W/m² | - |
| 1777644006 | 11.11° C | 55% | 1013.2 hPa | 0 mm | - | 575 W/m² | - |
| 1777643703 | 11.11° C | 54% | 1013.3 hPa | 0 mm | - | 574 W/m² | - |
| 1777643400 | 11.11° C | 59% | 1013.5 hPa | 0 mm | - | 564 W/m² | - |
| 1777643096 | 11.11° C | 58% | 1013.3 hPa | 0 mm | - | 555 W/m² | - |
| 1777642793 | 11.11° C | 58% | 1013.5 hPa | 0 mm | - | 610 W/m² | - |
| 1777642490 | 10° C | 60% | 1013.8 hPa | 0 mm | - | 607 W/m² | - |
| 1777642186 | 10° C | 61% | 1013.7 hPa | 0 mm | - | 538 W/m² | - |
| 1777641884 | 9.44° C | 63% | 1013.8 hPa | 0 mm | - | 163 W/m² | - |
| 1777641583 | 9.44° C | 64% | 1013.6 hPa | 0 mm | - | 510 W/m² | - |
| 1777641278 | 10° C | 65% | 1013.6 hPa | 0 mm | - | 185 W/m² | - |
| 1777640975 | 9.44° C | 67% | 1013.6 hPa | 0 mm | - | 140 W/m² | - |
| 1777640672 | 9.44° C | 67% | 1013.6 hPa | 0 mm | - | 167 W/m² | - |
| 1777640368 | 9.44° C | 67% | 1013.6 hPa | 0 mm | - | 430 W/m² | - |
| 1777640065 | 9.44° C | 67% | 1013.8 hPa | 0 mm | - | 402 W/m² | - |
| 1777639762 | 9.44° C | 69% | 1013.9 hPa | 0 mm | - | 382 W/m² | - |
* Rain latest hour (hover to see other rain measurements)
** Current wind speed in m/s (hover to see current wind gust speed)